Aeroporto :
LOGIN :

Iscrizione | Disclaimer

   EN    FR    IT 

 










Sommario :    VFR   VFR Marginale   IFR   IFR Intensivo   IFR Molto Intensivo
Visibilità : 
Base nubi : 
>= 8 km
>= 3000ft
5 / 8 km
1000 / 3000 ft
1500m / 5 km
500 / 1000 ft
800 / 1500m
200 / 500 ft
< 800m
< 200 ft
Simboli :   Temporali  Nebbia  Neve Forte  Precipitazioni Forti  Vento > 20 kt
SIGMETs :   Varie  Temporali  Ghiacco  Turbolenza  Onda orograficha  Ceneri Vulcaniche






- Altitudine del aeroporto : -13 ft
- Codice IATA : LEY


EHLE - Lelystad

ULTIMO METAR :
  • 120525Z AUTO 20013KT 170V230 9999 // FEW008 BKN010 BKN013 05/04 Q0998 RE// NOSIG

METARs OBSOLETI :
  • 120455Z AUTO 20014KT 170V230 9999 // FEW015CB 05/04 Q0998 RE// NOSIG
  • 120425Z AUTO 20013KT 9999 // SCT015CB BKN035 BKN040 05/04 Q0998 RE//
  • 120355Z AUTO 21014KT 180V240 9000 // FEW011 SCT015CB BKN027 05/04 Q0998 RE//
  • 120325Z AUTO 20015KT 170V230 6000 // SCT015CB BKN021 BKN031 05/04 Q0998 RE//
  • 120255Z AUTO 19012KT 160V230 9000 // FEW007 SCT010 BKN012 BKN015CB 05/04 Q0998 RE//

TAF TAF EHLE
Valido dal 12 a 06 ore il 13 a 12 ore UTC


120508Z 1206/1312 20013KT 9999 SCT025
PROB40 1206/1211 BKN009
PROB30
TEMPO 1206/1211 6000 SCT022CB
TEMPO 1211/1218 6000 SHRA SCT022CB
TEMPO 1222/1302 21015G25KT 6000 RA SHRA BKN010 FEW015CB
TEMPO 1302/1312 27015G25KT 6000 SHRA SCT022CB
BECMG 1309/1312 24011KT



MetMap, La meteo Aeronautica in un colpo d'occhio ! - Copyright ORBIFLY Dicembre 2007 - Disclaimer

ORBIFLY MET'MAP TEAM :

Programmazione e sviluppo : Alexandra Zaïnal
Concezione e sviluppo : Baudouin d'Aumeries
Co-Programmazione e sviluppo : Marc-Olivier Méhu
Supporto tecnico e logistico : Manuel Goepfert
Aiuto per la traduzione : Arnaldo La Scala

Contatto : metmap@orbifly.com




FONTI E CREDITI :

   NOAA